createdAt,value
2022-08-18T00:01:11.692Z,380.87943
2022-08-18T00:06:16.244Z,414.22901
2022-08-18T00:11:17.941Z,444.81301
2022-08-18T00:16:19.708Z,344
2022-08-18T00:21:21.351Z,324.24691
2022-08-18T00:26:23.032Z,324.24691
2022-08-18T00:31:24.717Z,306.35294
2022-08-18T00:36:26.578Z,310.66667
2022-08-18T00:41:28.217Z,310.66667
2022-08-18T00:46:29.918Z,302.13953
2022-08-18T00:51:31.563Z,310.66667
2022-08-18T00:56:33.465Z,302.13953
2022-08-18T01:01:35.224Z,333.87342
2022-08-18T01:06:36.904Z,329
2022-08-18T01:11:38.560Z,321.91411
2022-08-18T01:16:40.216Z,338.87179
2022-08-18T01:21:58.502Z,324.24691
2022-08-18T01:27:00.287Z,317.33333
2022-08-18T01:32:01.931Z,315.08434
2022-08-18T01:37:03.584Z,310.66667
2022-08-18T01:42:05.308Z,315.08434
2022-08-18T01:47:06.997Z,308.49704
2022-08-18T01:52:08.649Z,302.13953
2022-08-18T01:57:10.286Z,329
2022-08-18T02:02:18.202Z,317.33333
2022-08-18T02:07:20.256Z,315.08434
2022-08-18T02:12:22.232Z,319.60976
2022-08-18T02:17:23.855Z,319.60976
2022-08-18T02:22:25.531Z,326.6087
2022-08-18T02:27:27.225Z,331.42138
2022-08-18T02:32:29.370Z,331.42138
2022-08-18T02:37:31.227Z,357.42282
2022-08-18T02:42:32.883Z,357.42282
2022-08-18T02:47:34.577Z,344
2022-08-18T02:52:36.415Z,354.66667
2022-08-18T02:57:38.873Z,374.76923
2022-08-18T03:02:40.571Z,349.26316
2022-08-18T03:07:44.032Z,363.04762
2022-08-18T03:12:45.770Z,354.66667
2022-08-18T03:17:47.571Z,357.42282
2022-08-18T03:22:49.262Z,354.66667
2022-08-18T03:27:52.264Z,371.77778
2022-08-18T03:32:54.020Z,365.91781
2022-08-18T03:37:55.669Z,384
2022-08-18T03:42:57.316Z,384
2022-08-18T03:48:03.665Z,384
2022-08-18T03:53:05.293Z,377.80282
2022-08-18T03:58:07.054Z,371.77778
2022-08-18T04:03:08.637Z,363.04762
2022-08-18T04:08:10.273Z,354.66667
2022-08-18T04:13:11.917Z,377.80282
2022-08-18T04:18:13.520Z,377.80282
2022-08-18T04:23:15.156Z,365.91781
2022-08-18T04:28:16.821Z,360.21622
2022-08-18T04:33:18.394Z,354.66667
2022-08-18T04:38:20.009Z,351.94702
2022-08-18T04:43:21.654Z,351.94702
2022-08-18T04:48:23.243Z,351.94702
2022-08-18T04:53:24.854Z,346.61438
2022-08-18T04:58:26.521Z,354.66667
2022-08-18T05:03:28.151Z,354.66667
2022-08-18T05:08:30.392Z,354.66667
2022-08-18T05:13:32.107Z,368.82759
2022-08-18T05:18:33.744Z,365.91781
2022-08-18T05:23:35.397Z,360.21622
2022-08-18T05:28:37.146Z,360.21622
2022-08-18T05:33:39.388Z,360.21622
2022-08-18T05:38:41.597Z,374.76923
2022-08-18T05:43:51.277Z,368.82759
2022-08-18T05:48:54.125Z,312.86228
2022-08-18T05:53:55.886Z,336.35669
2022-08-18T05:58:57.496Z,346.61438
2022-08-18T06:03:59.929Z,377.80282
2022-08-18T06:09:01.528Z,357.42282
2022-08-18T06:14:03.399Z,351.94702
2022-08-18T06:19:05.012Z,380.87943
2022-08-18T06:24:06.641Z,384
2022-08-18T06:29:08.224Z,374.76923
2022-08-18T06:34:09.935Z,365.91781
2022-08-18T06:39:11.531Z,368.82759
2022-08-18T06:44:13.200Z,384
2022-08-18T06:49:14.783Z,390.37681
2022-08-18T06:54:16.507Z,390.37681
2022-08-18T06:59:18.142Z,407.15789
2022-08-18T07:04:19.880Z,393.63504
2022-08-18T07:09:21.487Z,393.63504
2022-08-18T07:14:23.141Z,363.04762
2022-08-18T07:19:24.788Z,363.04762
2022-08-18T07:24:26.385Z,357.42282
2022-08-18T07:29:28.004Z,363.04762
2022-08-18T07:34:29.634Z,368.82759
2022-08-18T07:39:31.326Z,363.04762
2022-08-18T07:44:32.925Z,368.82759
2022-08-18T07:49:35.334Z,371.77778
2022-08-18T07:54:49.443Z,400.2963
2022-08-18T07:59:52.020Z,396.94118
2022-08-18T08:04:53.623Z,384
2022-08-18T08:09:55.257Z,365.91781
2022-08-18T08:14:56.868Z,357.42282
2022-08-18T08:20:01.309Z,354.66667
2022-08-18T08:25:03.378Z,351.94702
2022-08-18T08:30:04.991Z,354.66667
2022-08-18T08:35:06.781Z,357.42282
2022-08-18T08:40:08.612Z,354.66667
2022-08-18T08:45:10.255Z,349.26316
2022-08-18T08:50:11.860Z,349.26316
2022-08-18T08:55:13.426Z,360.21622
2022-08-18T09:00:15.023Z,360.21622
2022-08-18T09:05:16.590Z,371.77778
2022-08-18T09:10:18.232Z,368.82759
2022-08-18T09:15:19.853Z,363.04762
2022-08-18T09:20:21.544Z,363.04762
2022-08-18T09:25:23.168Z,363.04762
2022-08-18T09:30:24.894Z,360.21622
2022-08-18T09:35:26.499Z,365.91781
2022-08-18T09:40:51.282Z,363.04762
2022-08-18T09:46:03.007Z,371.77778
2022-08-18T09:51:04.644Z,374.76923
2022-08-18T09:56:06.255Z,374.76923
2022-08-18T10:01:07.958Z,377.80282
2022-08-18T13:09:54.272Z,403.70149
2022-08-18T13:14:56.177Z,407.15789
2022-08-18T13:20:00.437Z,407.15789
2022-08-18T13:25:03.847Z,407.15789
2022-08-18T13:30:29.536Z,396.94118
2022-08-18T13:35:35.324Z,393.63504
2022-08-18T13:40:45.529Z,390.37681
2022-08-18T13:45:52.970Z,374.76923
2022-08-18T13:50:57.401Z,380.87943
2022-08-18T13:55:59.278Z,371.77778
2022-08-18T14:01:22.791Z,371.77778
2022-08-18T14:06:46.836Z,360.21622
2022-08-18T14:11:53.103Z,360.21622
2022-08-18T14:16:54.690Z,365.91781
2022-08-18T14:21:58.561Z,380.87943
2022-08-18T14:27:00.283Z,365.91781
2022-08-18T14:32:02.708Z,380.87943
2022-08-18T14:37:04.568Z,365.91781
2022-08-18T14:42:12.185Z,374.76923
2022-08-18T14:47:13.886Z,380.87943
2022-08-18T14:52:25.865Z,390.37681
2022-08-18T14:57:28.870Z,396.94118
2022-08-18T15:02:30.495Z,403.70149
2022-08-18T15:07:32.743Z,417.84615
2022-08-18T15:12:34.677Z,425.25
2022-08-18T15:17:37.943Z,432.88889
2022-08-18T15:22:39.732Z,429.03937
2022-08-18T15:27:42.846Z,407.15789
2022-08-18T15:32:44.926Z,403.70149
2022-08-18T15:37:46.613Z,403.70149
2022-08-18T15:42:48.385Z,410.66667
2022-08-18T15:47:50.738Z,403.70149
2022-08-18T15:52:53.142Z,403.70149
2022-08-18T15:57:56.816Z,390.37681
2022-08-18T16:03:00.008Z,384
2022-08-18T16:08:02.417Z,390.37681
2022-08-18T16:13:05.015Z,407.15789
2022-08-18T16:18:06.641Z,414.22901
2022-08-18T16:23:08.454Z,421.51938
2022-08-18T16:28:10.077Z,429.03937
2022-08-18T16:33:11.696Z,432.88889
2022-08-18T16:38:13.346Z,436.8
2022-08-18T16:43:14.929Z,440.77419
2022-08-18T16:48:17.035Z,432.88889
2022-08-18T16:53:18.750Z,436.8
2022-08-18T16:58:20.305Z,414.22901
2022-08-18T17:03:22.092Z,425.25
2022-08-18T17:08:23.670Z,432.88889
2022-08-18T17:13:25.295Z,425.25
2022-08-18T17:18:26.888Z,440.77419
2022-08-18T17:23:28.460Z,440.77419
2022-08-18T17:28:30.070Z,444.81301
2022-08-18T17:33:34.592Z,453.09091
2022-08-18T17:38:36.186Z,457.33333
2022-08-18T17:43:37.840Z,453.09091
2022-08-18T17:48:39.578Z,453.09091
2022-08-18T17:53:41.278Z,457.33333
2022-08-18T17:58:42.899Z,448.91803
2022-08-18T18:03:44.532Z,453.09091
2022-08-18T18:08:46.279Z,470.49573
2022-08-18T18:13:47.862Z,475.03448
2022-08-18T18:18:49.488Z,466.0339
2022-08-18T18:23:51.111Z,457.33333
2022-08-18T18:28:52.706Z,425.25
2022-08-18T18:33:54.396Z,414.22901
2022-08-18T18:38:56.017Z,403.70149
2022-08-18T18:43:57.622Z,410.66667
2022-08-18T18:48:59.208Z,403.70149
2022-08-18T18:54:00.864Z,390.37681
2022-08-18T18:59:02.439Z,410.66667
2022-08-18T19:04:04.028Z,407.15789
2022-08-18T19:09:05.606Z,403.70149
2022-08-18T19:14:07.426Z,390.37681
2022-08-18T19:19:36.709Z,407.15789
2022-08-18T19:24:40.295Z,410.66667
2022-08-18T19:29:41.923Z,414.22901
2022-08-18T19:34:51.478Z,414.22901
2022-08-18T19:39:56.154Z,425.25
2022-08-18T19:45:15.369Z,425.25
2022-08-18T19:50:18.672Z,403.70149
2022-08-18T19:55:20.321Z,390.37681
2022-08-18T20:00:22.051Z,393.63504
2022-08-18T20:05:23.665Z,363.04762
2022-08-18T20:10:25.261Z,357.42282
2022-08-18T20:15:26.903Z,368.82759
2022-08-18T20:20:28.662Z,380.87943
2022-08-18T20:25:30.237Z,384
2022-08-18T20:30:31.797Z,374.76923
2022-08-18T20:35:33.409Z,365.91781
2022-08-18T20:40:35.051Z,377.80282
2022-08-18T20:45:36.821Z,384
2022-08-18T20:50:47.812Z,421.51938
2022-08-18T20:55:53.128Z,403.70149
2022-08-18T21:00:55.102Z,387.16547
2022-08-18T21:05:56.783Z,363.04762
2022-08-18T21:10:58.398Z,357.42282
2022-08-18T21:16:00.154Z,346.61438
2022-08-18T21:21:01.824Z,396.94118
2022-08-18T21:26:06.345Z,384
2022-08-18T21:31:41.772Z,368.82759
2022-08-18T21:36:45.160Z,357.42282
2022-08-18T21:41:46.768Z,351.94702
2022-08-18T21:46:48.419Z,351.94702
2022-08-18T21:51:50.103Z,341.41935
2022-08-18T21:56:51.707Z,368.82759
2022-08-18T22:01:53.491Z,390.37681
2022-08-18T22:06:55.093Z,374.76923
2022-08-18T22:12:00.674Z,374.76923
2022-08-18T22:17:04.122Z,377.80282
2022-08-18T22:22:05.728Z,380.87943
2022-08-18T22:27:07.410Z,403.70149
2022-08-18T22:32:09.058Z,387.16547
2022-08-18T22:37:10.699Z,360.21622
2022-08-18T22:42:12.551Z,341.41935
2022-08-18T22:47:14.222Z,354.66667
2022-08-18T22:52:15.917Z,319.60976
2022-08-18T22:57:17.547Z,321.91411
2022-08-18T23:02:21.912Z,365.91781
2022-08-18T23:07:23.819Z,338.87179
2022-08-18T23:12:25.409Z,346.61438
2022-08-18T23:17:26.985Z,384
2022-08-18T23:22:28.844Z,400.2963
2022-08-18T23:27:30.477Z,374.76923
2022-08-18T23:32:33.381Z,384
2022-08-18T23:37:34.952Z,365.91781
2022-08-18T23:42:36.519Z,374.76923
2022-08-18T23:47:38.119Z,333.87342
2022-08-18T23:52:39.695Z,312.86228
2022-08-18T23:57:41.410Z,351.94702
